sensor_id;sensor_type;location;lat;lon;timestamp;P1;durP1;ratioP1;P2;durP2;ratioP2
23129;SDS011;11734;51.046;13.778;2023-04-16T00:00:37;7.50;;;6.80;;
23129;SDS011;11734;51.046;13.778;2023-04-16T00:03:05;9.43;;;7.47;;
23129;SDS011;11734;51.046;13.778;2023-04-16T00:05:32;9.27;;;7.80;;
23129;SDS011;11734;51.046;13.778;2023-04-16T00:08:00;7.70;;;6.87;;
23129;SDS011;11734;51.046;13.778;2023-04-16T00:10:27;9.67;;;7.37;;
23129;SDS011;11734;51.046;13.778;2023-04-16T00:12:54;7.47;;;6.77;;
23129;SDS011;11734;51.046;13.778;2023-04-16T00:15:22;9.17;;;7.30;;
23129;SDS011;11734;51.046;13.778;2023-04-16T00:17:49;8.00;;;7.20;;
23129;SDS011;11734;51.046;13.778;2023-04-16T00:20:16;7.97;;;6.57;;
23129;SDS011;11734;51.046;13.778;2023-04-16T00:22:45;7.90;;;7.10;;
23129;SDS011;11734;51.046;13.778;2023-04-16T00:25:13;7.40;;;6.60;;
23129;SDS011;11734;51.046;13.778;2023-04-16T00:27:40;9.63;;;7.37;;
23129;SDS011;11734;51.046;13.778;2023-04-16T00:30:07;7.67;;;6.93;;
23129;SDS011;11734;51.046;13.778;2023-04-16T00:32:35;8.87;;;6.90;;
23129;SDS011;11734;51.046;13.778;2023-04-16T00:35:02;8.50;;;7.00;;
23129;SDS011;11734;51.046;13.778;2023-04-16T00:37:30;8.57;;;6.90;;
23129;SDS011;11734;51.046;13.778;2023-04-16T00:39:57;8.00;;;6.77;;
23129;SDS011;11734;51.046;13.778;2023-04-16T00:42:24;10.10;;;7.50;;
23129;SDS011;11734;51.046;13.778;2023-04-16T00:44:52;8.70;;;7.03;;
23129;SDS011;11734;51.046;13.778;2023-04-16T00:47:20;8.50;;;7.53;;
23129;SDS011;11734;51.046;13.778;2023-04-16T00:49:47;7.80;;;6.87;;
23129;SDS011;11734;51.046;13.778;2023-04-16T00:52:15;7.53;;;6.73;;
23129;SDS011;11734;51.046;13.778;2023-04-16T00:54:42;6.83;;;6.10;;
23129;SDS011;11734;51.046;13.778;2023-04-16T00:57:09;8.10;;;6.93;;
23129;SDS011;11734;51.046;13.778;2023-04-16T00:59:36;8.00;;;6.33;;
23129;SDS011;11734;51.046;13.778;2023-04-16T01:02:04;8.13;;;6.40;;
23129;SDS011;11734;51.046;13.778;2023-04-16T01:04:31;7.50;;;6.47;;
23129;SDS011;11734;51.046;13.778;2023-04-16T01:06:59;7.70;;;6.57;;
23129;SDS011;11734;51.046;13.778;2023-04-16T01:09:26;8.30;;;7.03;;
23129;SDS011;11734;51.046;13.778;2023-04-16T01:11:54;9.83;;;7.47;;
23129;SDS011;11734;51.046;13.778;2023-04-16T01:14:21;8.80;;;7.40;;
23129;SDS011;11734;51.046;13.778;2023-04-16T01:16:48;7.30;;;6.53;;
23129;SDS011;11734;51.046;13.778;2023-04-16T01:19:16;6.60;;;5.70;;
23129;SDS011;11734;51.046;13.778;2023-04-16T01:21:43;7.93;;;6.60;;
23129;SDS011;11734;51.046;13.778;2023-04-16T01:24:11;6.67;;;6.00;;
23129;SDS011;11734;51.046;13.778;2023-04-16T01:26:38;7.77;;;6.93;;
23129;SDS011;11734;51.046;13.778;2023-04-16T01:29:05;7.50;;;6.27;;
23129;SDS011;11734;51.046;13.778;2023-04-16T01:31:33;7.23;;;6.30;;
23129;SDS011;11734;51.046;13.778;2023-04-16T01:34:20;7.07;;;6.33;;
23129;SDS011;11734;51.046;13.778;2023-04-16T01:36:47;8.00;;;6.77;;
23129;SDS011;11734;51.046;13.778;2023-04-16T01:39:15;7.53;;;6.43;;
23129;SDS011;11734;51.046;13.778;2023-04-16T01:41:44;7.07;;;6.37;;
23129;SDS011;11734;51.046;13.778;2023-04-16T01:44:11;6.67;;;5.90;;
23129;SDS011;11734;51.046;13.778;2023-04-16T01:46:40;7.20;;;6.50;;
23129;SDS011;11734;51.046;13.778;2023-04-16T01:49:09;6.80;;;6.10;;
23129;SDS011;11734;51.046;13.778;2023-04-16T01:51:37;6.30;;;5.67;;
23129;SDS011;11734;51.046;13.778;2023-04-16T01:54:04;7.43;;;6.63;;
23129;SDS011;11734;51.046;13.778;2023-04-16T01:56:31;8.07;;;5.53;;
23129;SDS011;11734;51.046;13.778;2023-04-16T01:58:58;6.87;;;6.13;;
23129;SDS011;11734;51.046;13.778;2023-04-16T02:01:32;6.73;;;6.03;;
23129;SDS011;11734;51.046;13.778;2023-04-16T02:04:00;7.03;;;6.33;;
23129;SDS011;11734;51.046;13.778;2023-04-16T02:06:27;7.03;;;6.33;;
23129;SDS011;11734;51.046;13.778;2023-04-16T02:08:54;7.33;;;6.37;;
23129;SDS011;11734;51.046;13.778;2023-04-16T02:11:23;7.53;;;6.27;;
23129;SDS011;11734;51.046;13.778;2023-04-16T02:13:50;6.90;;;5.97;;
23129;SDS011;11734;51.046;13.778;2023-04-16T02:16:18;7.53;;;6.50;;
23129;SDS011;11734;51.046;13.778;2023-04-16T02:18:56;8.00;;;6.90;;
23129;SDS011;11734;51.046;13.778;2023-04-16T02:21:27;7.57;;;5.93;;
23129;SDS011;11734;51.046;13.778;2023-04-16T02:23:54;7.10;;;6.40;;
23129;SDS011;11734;51.046;13.778;2023-04-16T02:26:26;7.50;;;6.33;;
23129;SDS011;11734;51.046;13.778;2023-04-16T02:28:58;6.73;;;6.10;;
23129;SDS011;11734;51.046;13.778;2023-04-16T02:31:33;7.77;;;6.40;;
23129;SDS011;11734;51.046;13.778;2023-04-16T02:34:01;7.70;;;6.27;;
23129;SDS011;11734;51.046;13.778;2023-04-16T02:36:28;7.23;;;6.27;;
23129;SDS011;11734;51.046;13.778;2023-04-16T02:38:57;6.80;;;6.17;;
23129;SDS011;11734;51.046;13.778;2023-04-16T02:41:25;6.07;;;5.47;;
23129;SDS011;11734;51.046;13.778;2023-04-16T02:43:52;7.30;;;6.60;;
23129;SDS011;11734;51.046;13.778;2023-04-16T02:46:19;7.40;;;5.60;;
23129;SDS011;11734;51.046;13.778;2023-04-16T02:48:48;7.80;;;6.33;;
23129;SDS011;11734;51.046;13.778;2023-04-16T02:51:15;7.47;;;6.10;;
23129;SDS011;11734;51.046;13.778;2023-04-16T02:53:43;9.67;;;6.43;;
23129;SDS011;11734;51.046;13.778;2023-04-16T02:56:12;8.10;;;6.50;;
23129;SDS011;11734;51.046;13.778;2023-04-16T02:58:39;8.03;;;7.00;;
23129;SDS011;11734;51.046;13.778;2023-04-16T03:01:06;7.77;;;5.87;;
23129;SDS011;11734;51.046;13.778;2023-04-16T03:03:34;8.03;;;6.20;;
23129;SDS011;11734;51.046;13.778;2023-04-16T03:06:01;7.03;;;5.73;;
23129;SDS011;11734;51.046;13.778;2023-04-16T03:08:28;8.03;;;6.60;;
23129;SDS011;11734;51.046;13.778;2023-04-16T03:10:56;6.67;;;5.97;;
23129;SDS011;11734;51.046;13.778;2023-04-16T03:13:23;6.57;;;5.87;;
23129;SDS011;11734;51.046;13.778;2023-04-16T03:15:51;6.60;;;5.47;;
23129;SDS011;11734;51.046;13.778;2023-04-16T03:18:18;6.70;;;5.90;;
23129;SDS011;11734;51.046;13.778;2023-04-16T03:20:51;6.43;;;5.43;;
23129;SDS011;11734;51.046;13.778;2023-04-16T03:23:18;6.90;;;5.47;;
23129;SDS011;11734;51.046;13.778;2023-04-16T03:25:46;6.47;;;5.43;;
23129;SDS011;11734;51.046;13.778;2023-04-16T03:28:16;6.83;;;5.83;;
23129;SDS011;11734;51.046;13.778;2023-04-16T03:30:48;6.93;;;5.43;;
23129;SDS011;11734;51.046;13.778;2023-04-16T03:33:17;7.33;;;6.10;;
23129;SDS011;11734;51.046;13.778;2023-04-16T03:35:44;6.40;;;5.63;;
23129;SDS011;11734;51.046;13.778;2023-04-16T03:38:12;6.90;;;5.97;;
23129;SDS011;11734;51.046;13.778;2023-04-16T03:40:40;6.03;;;5.30;;
23129;SDS011;11734;51.046;13.778;2023-04-16T03:43:07;7.37;;;5.90;;
23129;SDS011;11734;51.046;13.778;2023-04-16T03:45:36;7.40;;;6.07;;
23129;SDS011;11734;51.046;13.778;2023-04-16T03:48:03;6.80;;;6.10;;
23129;SDS011;11734;51.046;13.778;2023-04-16T03:50:30;7.30;;;6.30;;
23129;SDS011;11734;51.046;13.778;2023-04-16T03:52:58;6.53;;;5.83;;
23129;SDS011;11734;51.046;13.778;2023-04-16T03:55:25;6.87;;;5.87;;
23129;SDS011;11734;51.046;13.778;2023-04-16T03:57:53;8.17;;;6.33;;
23129;SDS011;11734;51.046;13.778;2023-04-16T04:00:20;6.63;;;5.50;;
23129;SDS011;11734;51.046;13.778;2023-04-16T04:02:59;7.40;;;6.33;;
23129;SDS011;11734;51.046;13.778;2023-04-16T04:05:26;7.57;;;5.67;;
23129;SDS011;11734;51.046;13.778;2023-04-16T04:07:54;7.27;;;5.90;;
23129;SDS011;11734;51.046;13.778;2023-04-16T04:10:21;6.87;;;5.80;;
23129;SDS011;11734;51.046;13.778;2023-04-16T04:12:48;7.23;;;5.90;;
23129;SDS011;11734;51.046;13.778;2023-04-16T04:15:16;7.70;;;5.50;;
23129;SDS011;11734;51.046;13.778;2023-04-16T04:17:43;6.83;;;6.10;;
23129;SDS011;11734;51.046;13.778;2023-04-16T04:20:11;6.40;;;5.43;;
23129;SDS011;11734;51.046;13.778;2023-04-16T04:22:42;7.33;;;5.83;;
23129;SDS011;11734;51.046;13.778;2023-04-16T04:25:10;6.67;;;5.47;;
23129;SDS011;11734;51.046;13.778;2023-04-16T04:27:37;8.67;;;6.20;;
23129;SDS011;11734;51.046;13.778;2023-04-16T04:30:06;6.80;;;6.10;;
23129;SDS011;11734;51.046;13.778;2023-04-16T04:32:34;8.53;;;5.87;;
23129;SDS011;11734;51.046;13.778;2023-04-16T04:35:01;7.70;;;5.97;;
23129;SDS011;11734;51.046;13.778;2023-04-16T04:37:29;6.80;;;5.93;;
23129;SDS011;11734;51.046;13.778;2023-04-16T04:39:56;7.77;;;5.90;;
23129;SDS011;11734;51.046;13.778;2023-04-16T04:42:24;7.53;;;5.90;;
23129;SDS011;11734;51.046;13.778;2023-04-16T04:44:53;6.93;;;5.90;;
23129;SDS011;11734;51.046;13.778;2023-04-16T04:47:21;6.27;;;5.47;;
23129;SDS011;11734;51.046;13.778;2023-04-16T04:49:51;6.27;;;5.67;;
23129;SDS011;11734;51.046;13.778;2023-04-16T04:52:18;7.63;;;6.20;;
23129;SDS011;11734;51.046;13.778;2023-04-16T04:54:46;7.53;;;5.83;;
23129;SDS011;11734;51.046;13.778;2023-04-16T04:57:14;6.10;;;5.50;;
23129;SDS011;11734;51.046;13.778;2023-04-16T04:59:42;6.77;;;5.33;;
23129;SDS011;11734;51.046;13.778;2023-04-16T05:02:11;7.27;;;5.63;;
23129;SDS011;11734;51.046;13.778;2023-04-16T05:04:39;5.83;;;5.00;;
23129;SDS011;11734;51.046;13.778;2023-04-16T05:07:06;6.23;;;5.63;;
23129;SDS011;11734;51.046;13.778;2023-04-16T05:09:34;7.57;;;6.03;;
23129;SDS011;11734;51.046;13.778;2023-04-16T05:12:01;6.40;;;5.30;;
23129;SDS011;11734;51.046;13.778;2023-04-16T05:14:29;6.40;;;5.77;;
23129;SDS011;11734;51.046;13.778;2023-04-16T05:16:56;6.23;;;5.07;;
23129;SDS011;11734;51.046;13.778;2023-04-16T05:19:24;7.30;;;5.80;;
23129;SDS011;11734;51.046;13.778;2023-04-16T05:21:51;6.10;;;5.47;;
23129;SDS011;11734;51.046;13.778;2023-04-16T05:24:18;5.67;;;5.07;;
23129;SDS011;11734;51.046;13.778;2023-04-16T05:26:46;8.23;;;5.37;;
23129;SDS011;11734;51.046;13.778;2023-04-16T05:29:13;6.37;;;5.40;;
23129;SDS011;11734;51.046;13.778;2023-04-16T05:31:40;8.93;;;6.07;;
23129;SDS011;11734;51.046;13.778;2023-04-16T05:34:07;6.63;;;5.57;;
23129;SDS011;11734;51.046;13.778;2023-04-16T05:36:35;7.17;;;5.70;;
23129;SDS011;11734;51.046;13.778;2023-04-16T05:39:02;6.70;;;4.97;;
23129;SDS011;11734;51.046;13.778;2023-04-16T05:41:29;7.20;;;5.53;;
23129;SDS011;11734;51.046;13.778;2023-04-16T05:43:57;5.33;;;4.83;;
23129;SDS011;11734;51.046;13.778;2023-04-16T05:46:24;5.87;;;4.93;;
23129;SDS011;11734;51.046;13.778;2023-04-16T05:48:51;6.27;;;4.83;;
23129;SDS011;11734;51.046;13.778;2023-04-16T05:51:18;6.07;;;4.77;;
23129;SDS011;11734;51.046;13.778;2023-04-16T05:53:48;5.60;;;4.73;;
23129;SDS011;11734;51.046;13.778;2023-04-16T05:56:15;7.77;;;5.33;;
23129;SDS011;11734;51.046;13.778;2023-04-16T05:58:42;6.10;;;4.80;;
23129;SDS011;11734;51.046;13.778;2023-04-16T06:01:10;5.73;;;4.80;;
23129;SDS011;11734;51.046;13.778;2023-04-16T06:03:37;6.10;;;5.37;;
23129;SDS011;11734;51.046;13.778;2023-04-16T06:06:05;6.20;;;5.23;;
23129;SDS011;11734;51.046;13.778;2023-04-16T06:08:34;7.57;;;5.30;;
23129;SDS011;11734;51.046;13.778;2023-04-16T06:11:01;6.07;;;5.23;;
23129;SDS011;11734;51.046;13.778;2023-04-16T06:13:29;7.40;;;5.70;;
23129;SDS011;11734;51.046;13.778;2023-04-16T06:15:56;6.97;;;6.23;;
23129;SDS011;11734;51.046;13.778;2023-04-16T06:18:23;7.33;;;5.37;;
23129;SDS011;11734;51.046;13.778;2023-04-16T06:20:51;6.87;;;5.40;;
23129;SDS011;11734;51.046;13.778;2023-04-16T06:23:18;8.37;;;6.03;;
23129;SDS011;11734;51.046;13.778;2023-04-16T06:25:45;8.60;;;6.13;;
23129;SDS011;11734;51.046;13.778;2023-04-16T06:28:12;7.03;;;5.53;;
23129;SDS011;11734;51.046;13.778;2023-04-16T06:30:40;6.43;;;5.57;;
23129;SDS011;11734;51.046;13.778;2023-04-16T06:33:09;7.37;;;6.27;;
23129;SDS011;11734;51.046;13.778;2023-04-16T06:35:37;7.90;;;5.47;;
23129;SDS011;11734;51.046;13.778;2023-04-16T06:38:04;7.70;;;6.23;;
23129;SDS011;11734;51.046;13.778;2023-04-16T06:40:32;7.37;;;6.10;;
23129;SDS011;11734;51.046;13.778;2023-04-16T06:42:59;41.53;;;25.50;;
23129;SDS011;11734;51.046;13.778;2023-04-16T06:45:26;36.83;;;26.17;;
23129;SDS011;11734;51.046;13.778;2023-04-16T06:47:53;8.47;;;6.73;;
23129;SDS011;11734;51.046;13.778;2023-04-16T06:50:21;8.27;;;6.57;;
23129;SDS011;11734;51.046;13.778;2023-04-16T06:52:48;8.13;;;6.27;;
23129;SDS011;11734;51.046;13.778;2023-04-16T06:55:16;7.30;;;5.73;;
23129;SDS011;11734;51.046;13.778;2023-04-16T06:57:44;7.90;;;6.43;;
23129;SDS011;11734;51.046;13.778;2023-04-16T07:00:11;6.80;;;6.10;;
23129;SDS011;11734;51.046;13.778;2023-04-16T07:02:39;9.17;;;6.47;;
23129;SDS011;11734;51.046;13.778;2023-04-16T07:05:06;7.60;;;6.43;;
23129;SDS011;11734;51.046;13.778;2023-04-16T07:07:34;7.57;;;6.20;;
23129;SDS011;11734;51.046;13.778;2023-04-16T07:10:01;6.93;;;5.43;;
23129;SDS011;11734;51.046;13.778;2023-04-16T07:12:31;6.93;;;5.90;;
23129;SDS011;11734;51.046;13.778;2023-04-16T07:14:59;8.03;;;6.63;;
23129;SDS011;11734;51.046;13.778;2023-04-16T07:17:26;6.13;;;5.33;;
23129;SDS011;11734;51.046;13.778;2023-04-16T07:19:53;7.17;;;6.13;;
23129;SDS011;11734;51.046;13.778;2023-04-16T07:22:21;7.57;;;5.77;;
23129;SDS011;11734;51.046;13.778;2023-04-16T07:24:48;7.43;;;6.17;;
23129;SDS011;11734;51.046;13.778;2023-04-16T07:27:15;6.97;;;5.47;;
23129;SDS011;11734;51.046;13.778;2023-04-16T07:29:43;7.17;;;6.30;;
23129;SDS011;11734;51.046;13.778;2023-04-16T07:32:11;7.73;;;6.70;;
23129;SDS011;11734;51.046;13.778;2023-04-16T07:34:40;6.10;;;5.50;;
23129;SDS011;11734;51.046;13.778;2023-04-16T07:37:08;7.90;;;6.27;;
23129;SDS011;11734;51.046;13.778;2023-04-16T07:39:35;6.90;;;6.20;;
23129;SDS011;11734;51.046;13.778;2023-04-16T07:42:02;7.80;;;6.70;;
23129;SDS011;11734;51.046;13.778;2023-04-16T07:44:30;8.77;;;6.60;;
23129;SDS011;11734;51.046;13.778;2023-04-16T07:46:57;8.07;;;6.73;;
23129;SDS011;11734;51.046;13.778;2023-04-16T07:49:24;7.70;;;6.47;;
23129;SDS011;11734;51.046;13.778;2023-04-16T07:51:52;7.07;;;5.57;;
23129;SDS011;11734;51.046;13.778;2023-04-16T07:54:19;7.07;;;5.87;;
23129;SDS011;11734;51.046;13.778;2023-04-16T07:56:46;8.17;;;6.53;;
23129;SDS011;11734;51.046;13.778;2023-04-16T07:59:13;8.00;;;7.07;;
23129;SDS011;11734;51.046;13.778;2023-04-16T08:01:49;7.13;;;6.07;;
23129;SDS011;11734;51.046;13.778;2023-04-16T08:04:16;7.67;;;6.27;;
23129;SDS011;11734;51.046;13.778;2023-04-16T08:06:50;7.93;;;6.43;;
23129;SDS011;11734;51.046;13.778;2023-04-16T08:09:18;6.80;;;5.77;;
23129;SDS011;11734;51.046;13.778;2023-04-16T08:11:46;6.80;;;6.03;;
23129;SDS011;11734;51.046;13.778;2023-04-16T08:14:15;9.80;;;7.07;;
23129;SDS011;11734;51.046;13.778;2023-04-16T08:16:43;9.07;;;6.93;;
23129;SDS011;11734;51.046;13.778;2023-04-16T08:19:10;7.73;;;6.33;;
23129;SDS011;11734;51.046;13.778;2023-04-16T08:21:38;7.67;;;6.87;;
23129;SDS011;11734;51.046;13.778;2023-04-16T08:24:05;8.77;;;7.23;;
23129;SDS011;11734;51.046;13.778;2023-04-16T08:26:33;8.97;;;7.00;;
23129;SDS011;11734;51.046;13.778;2023-04-16T08:29:00;9.67;;;7.53;;
23129;SDS011;11734;51.046;13.778;2023-04-16T08:31:28;8.30;;;7.17;;
23129;SDS011;11734;51.046;13.778;2023-04-16T08:33:55;9.17;;;7.20;;
23129;SDS011;11734;51.046;13.778;2023-04-16T08:36:23;8.90;;;6.80;;
23129;SDS011;11734;51.046;13.778;2023-04-16T08:39:10;9.07;;;6.77;;
23129;SDS011;11734;51.046;13.778;2023-04-16T08:41:40;9.37;;;6.57;;
23129;SDS011;11734;51.046;13.778;2023-04-16T08:44:08;10.10;;;7.80;;
23129;SDS011;11734;51.046;13.778;2023-04-16T08:46:36;8.83;;;7.37;;
23129;SDS011;11734;51.046;13.778;2023-04-16T08:49:04;8.23;;;7.37;;
23129;SDS011;11734;51.046;13.778;2023-04-16T08:51:33;8.30;;;7.33;;
23129;SDS011;11734;51.046;13.778;2023-04-16T08:54:04;10.50;;;7.93;;
23129;SDS011;11734;51.046;13.778;2023-04-16T08:56:35;8.60;;;7.10;;
23129;SDS011;11734;51.046;13.778;2023-04-16T08:59:02;8.93;;;7.00;;
23129;SDS011;11734;51.046;13.778;2023-04-16T09:01:34;10.53;;;7.90;;
23129;SDS011;11734;51.046;13.778;2023-04-16T09:04:01;11.90;;;8.67;;
23129;SDS011;11734;51.046;13.778;2023-04-16T09:06:29;10.37;;;7.97;;
23129;SDS011;11734;51.046;13.778;2023-04-16T09:08:57;10.07;;;8.03;;
23129;SDS011;11734;51.046;13.778;2023-04-16T09:11:25;9.23;;;7.27;;
23129;SDS011;11734;51.046;13.778;2023-04-16T09:13:52;9.70;;;8.07;;
23129;SDS011;11734;51.046;13.778;2023-04-16T09:16:20;9.43;;;7.13;;
23129;SDS011;11734;51.046;13.778;2023-04-16T09:18:47;8.30;;;6.93;;
23129;SDS011;11734;51.046;13.778;2023-04-16T09:21:14;9.53;;;7.40;;
23129;SDS011;11734;51.046;13.778;2023-04-16T09:23:42;9.40;;;7.30;;
23129;SDS011;11734;51.046;13.778;2023-04-16T09:26:11;8.40;;;6.77;;
23129;SDS011;11734;51.046;13.778;2023-04-16T09:28:42;8.07;;;7.17;;
23129;SDS011;11734;51.046;13.778;2023-04-16T09:31:13;7.80;;;6.67;;
23129;SDS011;11734;51.046;13.778;2023-04-16T09:33:56;7.73;;;6.23;;
23129;SDS011;11734;51.046;13.778;2023-04-16T09:36:26;8.83;;;6.70;;
23129;SDS011;11734;51.046;13.778;2023-04-16T09:38:54;7.60;;;6.10;;
23129;SDS011;11734;51.046;13.778;2023-04-16T09:41:24;7.03;;;6.33;;
23129;SDS011;11734;51.046;13.778;2023-04-16T09:46:21;7.43;;;5.87;;
23129;SDS011;11734;51.046;13.778;2023-04-16T09:48:48;8.33;;;6.47;;
23129;SDS011;11734;51.046;13.778;2023-04-16T09:51:16;8.63;;;6.73;;
23129;SDS011;11734;51.046;13.778;2023-04-16T09:53:43;8.40;;;6.60;;
23129;SDS011;11734;51.046;13.778;2023-04-16T09:56:11;7.77;;;6.57;;
23129;SDS011;11734;51.046;13.778;2023-04-16T09:58:38;6.90;;;6.00;;
23129;SDS011;11734;51.046;13.778;2023-04-16T10:01:07;8.90;;;7.43;;
23129;SDS011;11734;51.046;13.778;2023-04-16T10:03:35;7.87;;;6.47;;
23129;SDS011;11734;51.046;13.778;2023-04-16T10:06:07;7.80;;;7.00;;
23129;SDS011;11734;51.046;13.778;2023-04-16T10:08:35;8.33;;;7.00;;
23129;SDS011;11734;51.046;13.778;2023-04-16T10:11:02;7.90;;;6.40;;
23129;SDS011;11734;51.046;13.778;2023-04-16T10:13:30;8.13;;;6.77;;
23129;SDS011;11734;51.046;13.778;2023-04-16T10:15:58;9.20;;;7.50;;
23129;SDS011;11734;51.046;13.778;2023-04-16T10:18:44;7.83;;;6.53;;
23129;SDS011;11734;51.046;13.778;2023-04-16T10:21:13;9.23;;;7.07;;
23129;SDS011;11734;51.046;13.778;2023-04-16T10:23:41;7.60;;;6.80;;
23129;SDS011;11734;51.046;13.778;2023-04-16T10:26:09;7.00;;;6.30;;
23129;SDS011;11734;51.046;13.778;2023-04-16T10:28:36;7.37;;;6.47;;
23129;SDS011;11734;51.046;13.778;2023-04-16T10:31:06;8.10;;;6.60;;
23129;SDS011;11734;51.046;13.778;2023-04-16T10:33:34;7.33;;;5.93;;
23129;SDS011;11734;51.046;13.778;2023-04-16T10:36:12;7.23;;;5.70;;
23129;SDS011;11734;51.046;13.778;2023-04-16T10:38:46;6.77;;;5.90;;
23129;SDS011;11734;51.046;13.778;2023-04-16T10:41:14;6.60;;;5.70;;
23129;SDS011;11734;51.046;13.778;2023-04-16T10:43:42;8.47;;;6.80;;
23129;SDS011;11734;51.046;13.778;2023-04-16T10:46:22;7.00;;;6.23;;
23129;SDS011;11734;51.046;13.778;2023-04-16T10:48:52;6.27;;;5.43;;
23129;SDS011;11734;51.046;13.778;2023-04-16T10:51:32;6.60;;;5.90;;
23129;SDS011;11734;51.046;13.778;2023-04-16T10:56:37;6.83;;;5.63;;
23129;SDS011;11734;51.046;13.778;2023-04-16T10:59:05;6.50;;;5.80;;
23129;SDS011;11734;51.046;13.778;2023-04-16T11:01:34;6.77;;;5.43;;
23129;SDS011;11734;51.046;13.778;2023-04-16T11:12:14;6.23;;;5.40;;
23129;SDS011;11734;51.046;13.778;2023-04-16T11:14:41;7.00;;;5.23;;
23129;SDS011;11734;51.046;13.778;2023-04-16T11:17:08;5.53;;;4.80;;
23129;SDS011;11734;51.046;13.778;2023-04-16T11:19:36;6.13;;;5.47;;
23129;SDS011;11734;51.046;13.778;2023-04-16T11:22:03;5.50;;;4.90;;
23129;SDS011;11734;51.046;13.778;2023-04-16T11:24:31;5.80;;;5.10;;
23129;SDS011;11734;51.046;13.778;2023-04-16T11:26:59;5.93;;;4.93;;
23129;SDS011;11734;51.046;13.778;2023-04-16T11:29:27;5.93;;;5.00;;
23129;SDS011;11734;51.046;13.778;2023-04-16T11:31:54;5.73;;;5.13;;
23129;SDS011;11734;51.046;13.778;2023-04-16T11:34:21;5.33;;;4.43;;
23129;SDS011;11734;51.046;13.778;2023-04-16T11:36:49;6.07;;;5.00;;
23129;SDS011;11734;51.046;13.778;2023-04-16T11:39:17;5.47;;;4.53;;
23129;SDS011;11734;51.046;13.778;2023-04-16T11:41:48;5.33;;;4.60;;
23129;SDS011;11734;51.046;13.778;2023-04-16T11:44:18;4.67;;;4.07;;
23129;SDS011;11734;51.046;13.778;2023-04-16T11:46:45;4.10;;;3.70;;
23129;SDS011;11734;51.046;13.778;2023-04-16T11:49:13;4.60;;;3.80;;
23129;SDS011;11734;51.046;13.778;2023-04-16T11:51:43;3.97;;;3.67;;
23129;SDS011;11734;51.046;13.778;2023-04-16T11:54:20;3.90;;;3.43;;
23129;SDS011;11734;51.046;13.778;2023-04-16T11:56:48;4.57;;;4.10;;
23129;SDS011;11734;51.046;13.778;2023-04-16T11:59:16;3.80;;;3.30;;
23129;SDS011;11734;51.046;13.778;2023-04-16T12:01:45;3.80;;;3.30;;
23129;SDS011;11734;51.046;13.778;2023-04-16T12:04:17;3.73;;;3.10;;
23129;SDS011;11734;51.046;13.778;2023-04-16T12:07:04;3.73;;;3.20;;
23129;SDS011;11734;51.046;13.778;2023-04-16T12:09:33;3.27;;;2.80;;
23129;SDS011;11734;51.046;13.778;2023-04-16T12:12:04;2.50;;;2.30;;
23129;SDS011;11734;51.046;13.778;2023-04-16T12:14:32;3.13;;;2.83;;
23129;SDS011;11734;51.046;13.778;2023-04-16T12:19:55;3.30;;;3.00;;
23129;SDS011;11734;51.046;13.778;2023-04-16T12:22:26;3.63;;;3.33;;
23129;SDS011;11734;51.046;13.778;2023-04-16T12:27:46;5.93;;;2.80;;
23129;SDS011;11734;51.046;13.778;2023-04-16T12:30:18;3.93;;;3.33;;
23129;SDS011;11734;51.046;13.778;2023-04-16T12:32:48;3.13;;;2.83;;
23129;SDS011;11734;51.046;13.778;2023-04-16T12:35:30;3.57;;;3.27;;
23129;SDS011;11734;51.046;13.778;2023-04-16T12:37:59;3.77;;;2.80;;
23129;SDS011;11734;51.046;13.778;2023-04-16T12:40:27;2.83;;;2.60;;
23129;SDS011;11734;51.046;13.778;2023-04-16T12:42:54;3.03;;;2.83;;
23129;SDS011;11734;51.046;13.778;2023-04-16T12:45:21;2.60;;;2.40;;
23129;SDS011;11734;51.046;13.778;2023-04-16T12:47:48;3.27;;;2.97;;
23129;SDS011;11734;51.046;13.778;2023-04-16T12:50:16;3.20;;;2.93;;
23129;SDS011;11734;51.046;13.778;2023-04-16T12:52:43;3.33;;;3.03;;
23129;SDS011;11734;51.046;13.778;2023-04-16T12:55:11;2.93;;;2.73;;
23129;SDS011;11734;51.046;13.778;2023-04-16T12:57:39;3.00;;;2.70;;
23129;SDS011;11734;51.046;13.778;2023-04-16T13:00:07;3.03;;;2.73;;
23129;SDS011;11734;51.046;13.778;2023-04-16T13:02:38;3.10;;;2.80;;
23129;SDS011;11734;51.046;13.778;2023-04-16T13:05:05;3.27;;;2.97;;
23129;SDS011;11734;51.046;13.778;2023-04-16T13:07:33;3.67;;;3.20;;
23129;SDS011;11734;51.046;13.778;2023-04-16T13:10:01;2.80;;;2.60;;
23129;SDS011;11734;51.046;13.778;2023-04-16T13:12:28;3.23;;;2.93;;
23129;SDS011;11734;51.046;13.778;2023-04-16T13:14:56;3.30;;;3.00;;
23129;SDS011;11734;51.046;13.778;2023-04-16T13:17:23;3.60;;;2.97;;
23129;SDS011;11734;51.046;13.778;2023-04-16T13:19:51;3.33;;;3.03;;
23129;SDS011;11734;51.046;13.778;2023-04-16T13:22:18;3.10;;;2.80;;
23129;SDS011;11734;51.046;13.778;2023-04-16T13:24:46;4.00;;;3.50;;
23129;SDS011;11734;51.046;13.778;2023-04-16T13:27:13;3.63;;;3.30;;
23129;SDS011;11734;51.046;13.778;2023-04-16T13:29:42;3.57;;;2.87;;
23129;SDS011;11734;51.046;13.778;2023-04-16T13:32:09;3.67;;;3.17;;
23129;SDS011;11734;51.046;13.778;2023-04-16T13:34:39;3.03;;;2.73;;
23129;SDS011;11734;51.046;13.778;2023-04-16T13:37:06;3.57;;;3.20;;
23129;SDS011;11734;51.046;13.778;2023-04-16T13:39:33;3.20;;;2.90;;
23129;SDS011;11734;51.046;13.778;2023-04-16T13:42:01;4.10;;;3.67;;
23129;SDS011;11734;51.046;13.778;2023-04-16T13:44:28;3.30;;;3.00;;
23129;SDS011;11734;51.046;13.778;2023-04-16T13:46:56;3.87;;;3.20;;
23129;SDS011;11734;51.046;13.778;2023-04-16T13:49:23;3.60;;;3.30;;
23129;SDS011;11734;51.046;13.778;2023-04-16T13:51:51;3.80;;;3.40;;
23129;SDS011;11734;51.046;13.778;2023-04-16T13:54:18;4.10;;;3.70;;
23129;SDS011;11734;51.046;13.778;2023-04-16T13:56:45;4.30;;;3.90;;
23129;SDS011;11734;51.046;13.778;2023-04-16T13:59:13;3.70;;;3.40;;
23129;SDS011;11734;51.046;13.778;2023-04-16T14:01:41;4.37;;;3.40;;
23129;SDS011;11734;51.046;13.778;2023-04-16T14:04:09;4.77;;;3.97;;
23129;SDS011;11734;51.046;13.778;2023-04-16T14:06:36;3.77;;;3.40;;
23129;SDS011;11734;51.046;13.778;2023-04-16T14:09:04;4.20;;;3.77;;
23129;SDS011;11734;51.046;13.778;2023-04-16T14:11:32;5.03;;;3.57;;
23129;SDS011;11734;51.046;13.778;2023-04-16T14:13:59;4.07;;;3.37;;
23129;SDS011;11734;51.046;13.778;2023-04-16T14:16:26;4.30;;;3.60;;
23129;SDS011;11734;51.046;13.778;2023-04-16T14:18:54;4.00;;;3.50;;
23129;SDS011;11734;51.046;13.778;2023-04-16T14:21:21;3.67;;;3.37;;
23129;SDS011;11734;51.046;13.778;2023-04-16T14:23:49;3.67;;;3.30;;
23129;SDS011;11734;51.046;13.778;2023-04-16T14:26:16;3.17;;;2.87;;
23129;SDS011;11734;51.046;13.778;2023-04-16T14:28:44;3.33;;;2.80;;
23129;SDS011;11734;51.046;13.778;2023-04-16T14:31:11;3.17;;;2.87;;
23129;SDS011;11734;51.046;13.778;2023-04-16T14:33:39;3.73;;;3.27;;
23129;SDS011;11734;51.046;13.778;2023-04-16T14:36:06;3.97;;;3.57;;
23129;SDS011;11734;51.046;13.778;2023-04-16T14:38:34;4.13;;;3.73;;
23129;SDS011;11734;51.046;13.778;2023-04-16T14:41:01;3.87;;;3.57;;
23129;SDS011;11734;51.046;13.778;2023-04-16T14:43:29;4.70;;;3.70;;
23129;SDS011;11734;51.046;13.778;2023-04-16T14:45:56;4.60;;;3.60;;
23129;SDS011;11734;51.046;13.778;2023-04-16T14:48:24;4.63;;;4.07;;
23129;SDS011;11734;51.046;13.778;2023-04-16T14:50:52;4.10;;;3.67;;
23129;SDS011;11734;51.046;13.778;2023-04-16T14:53:19;4.40;;;3.97;;
23129;SDS011;11734;51.046;13.778;2023-04-16T14:55:47;4.13;;;3.67;;
23129;SDS011;11734;51.046;13.778;2023-04-16T14:58:14;4.57;;;4.17;;